Time;durP1;ratioP1;P1;durP2;ratioP2;P2;SDS_P1;SDS_P2;PMS_P1;PMS_P2;Temp;Humidity;BMP_temperature;BMP_pressure;BME280_temperature;BME280_humidity;BME280_pressure;Samples;Min_cycle;Max_cycle;Signal;HPM_P1;HPM_P2
2022/03/23 00:02:05;;;;;;;43.95;29.35;;;;;;;3.17;100.00;161398.91;5050097;28;20051;-58
2022/03/23 00:04:31;;;;;;;52.55;28.52;;;;;;;3.12;100.00;161385.50;5051346;28;20501;-58
2022/03/23 00:06:57;;;;;;;42.13;25.23;;;;;;;3.06;100.00;161368.03;5049310;28;20041;-58
2022/03/23 00:09:22;;;;;;;42.53;28.20;;;;;;;3.01;100.00;161355.97;5051358;28;20029;-58
2022/03/23 00:11:47;;;;;;;50.17;29.35;;;;;;;2.95;100.00;161341.19;5050005;28;20040;-58
2022/03/23 00:14:14;;;;;;;48.25;29.25;;;;;;;2.91;100.00;161330.41;5054771;28;20028;-58
2022/03/23 00:16:39;;;;;;;47.45;29.38;;;;;;;2.93;100.00;161334.50;5069762;28;20047;-59
2022/03/23 00:19:06;;;;;;;43.67;30.75;;;;;;;2.91;100.00;161329.09;5071145;28;20027;-59
2022/03/23 00:21:31;;;;;;;46.85;26.23;;;;;;;2.89;100.00;161325.09;5069400;28;20043;-58
2022/03/23 00:23:57;;;;;;;48.05;30.60;;;;;;;2.81;100.00;161304.91;5071346;28;20017;-59
2022/03/23 00:26:22;;;;;;;50.85;30.23;;;;;;;2.76;100.00;161290.13;5068594;28;20403;-59
2022/03/23 00:28:48;;;;;;;47.38;29.48;;;;;;;2.76;100.00;161291.50;5071342;28;20024;-59
2022/03/23 00:31:14;;;;;;;53.42;30.92;;;;;;;2.75;100.00;161288.81;5050470;28;20059;-59
2022/03/23 00:33:39;;;;;;;54.00;31.17;;;;;;;2.75;100.00;161288.81;5051400;28;20025;-59
2022/03/23 00:36:07;;;;;;;44.35;27.98;;;;;;;2.42;100.00;161202.88;5049408;28;20032;-59
2022/03/23 00:38:32;;;;;;;44.85;28.83;;;;;;;2.63;100.00;161256.59;5051441;28;20025;-59
2022/03/23 00:40:58;;;;;;;37.15;25.00;;;;;;;2.55;100.00;161236.44;5051327;28;20075;-59
2022/03/23 00:43:23;;;;;;;40.58;29.58;;;;;;;2.45;100.00;161210.94;5049245;28;20388;-59
2022/03/23 00:45:48;;;;;;;42.58;29.35;;;;;;;2.41;100.00;161200.22;5068441;28;20031;-59
2022/03/23 00:48:14;;;;;;;48.53;29.55;;;;;;;2.34;100.00;161181.44;5069515;28;20495;-59
2022/03/23 00:50:39;;;;;;;49.45;31.00;;;;;;;2.29;100.00;161167.97;5070823;28;20031;-58
2022/03/23 00:53:05;;;;;;;42.55;28.88;;;;;;;2.24;100.00;161154.56;5069218;28;20044;-59
2022/03/23 00:55:30;;;;;;;37.22;27.90;;;;;;;2.19;100.00;161143.84;5070886;28;20036;-58
2022/03/23 00:57:55;;;;;;;38.60;26.00;;;;;;;2.18;100.00;161141.16;5069287;28;20492;-59
2022/03/23 01:00:22;;;;;;;40.53;28.60;;;;;;;2.14;100.00;161130.41;5054351;28;20029;-58
2022/03/23 01:02:48;;;;;;;48.35;27.85;;;;;;;2.17;100.00;161138.47;5049257;28;20060;-58
2022/03/23 01:05:15;;;;;;;46.28;28.38;;;;;;;2.13;100.00;161127.72;5050322;28;20072;-58
2022/03/23 01:07:41;;;;;;;44.25;27.83;;;;;;;2.10;100.00;161119.69;5049348;28;20044;-58
2022/03/23 01:10:11;;;;;;;47.97;27.63;;;;;;;2.06;100.00;161108.91;5050596;28;20094;-58
2022/03/23 01:12:36;;;;;;;44.65;29.92;;;;;;;2.08;100.00;161114.31;5049051;28;20041;-58
2022/03/23 01:15:03;;;;;;;49.40;32.42;;;;;;;2.14;100.00;161130.41;5060965;28;20020;-58
2022/03/23 01:17:29;;;;;;;43.63;28.25;;;;;;;2.07;100.00;161111.59;5068413;28;20047;-58
2022/03/23 01:19:54;;;;;;;53.00;30.20;;;;;;;2.01;100.00;161096.84;5070317;28;20024;-58
2022/03/23 01:22:19;;;;;;;49.63;30.15;;;;;;;1.96;100.00;161082.09;5068758;28;20040;-59
2022/03/23 01:24:45;;;;;;;44.13;30.75;;;;;;;1.87;100.00;161060.63;5070629;28;20135;-58
2022/03/23 01:27:10;;;;;;;42.67;27.13;;;;;;;1.92;100.00;161071.34;5068738;28;20051;-59
2022/03/23 01:29:36;;;;;;;54.97;28.98;;;;;;;1.97;100.00;161084.81;5068776;28;20380;-58
2022/03/23 01:32:02;;;;;;;52.70;27.15;;;;;;;1.97;100.00;161084.81;5069069;28;20125;-59
2022/03/23 01:34:27;;;;;;;44.92;28.08;;;;;;;1.98;100.00;161087.44;5069775;28;20097;-59
2022/03/23 01:36:53;;;;;;;52.33;32.58;;;;;;;1.97;100.00;161084.81;5069085;28;20661;-58
2022/03/23 01:39:18;;;;;;;52.38;30.75;;;;;;;1.94;100.00;161078.03;5070218;28;20028;-58
2022/03/23 01:41:44;;;;;;;55.17;31.65;;;;;;;1.92;100.00;161071.34;5067152;28;20550;-59
2022/03/23 01:44:19;;;;;;;46.13;28.83;;;;;;;1.65;100.00;161001.59;5062173;28;20045;-59
2022/03/23 01:47:02;;;;;;;45.00;27.42;;;;;;;1.82;100.00;161047.22;5049173;28;20523;-59
2022/03/23 01:49:28;;;;;;;38.15;27.08;;;;;;;1.70;100.00;161015.00;5049774;28;20095;-58
2022/03/23 01:51:54;;;;;;;51.22;30.45;;;;;;;1.61;100.00;160990.81;5048724;28;20543;-59
2022/03/23 01:54:19;;;;;;;45.90;27.70;;;;;;;1.56;100.00;160978.81;5050057;28;20052;-58
2022/03/23 01:56:45;;;;;;;51.80;29.80;;;;;;;1.38;100.00;160931.78;5046891;28;20041;-58
2022/03/23 01:59:11;;;;;;;44.28;28.83;;;;;;;1.49;100.00;160961.34;5055403;28;20028;-58
2022/03/23 02:01:38;;;;;;;45.60;27.92;;;;;;;1.49;100.00;160961.34;5068780;28;20075;-58
2022/03/23 02:04:03;;;;;;;52.25;27.30;;;;;;;1.48;100.00;160958.66;5069661;28;20103;-58
2022/03/23 02:06:29;;;;;;;42.15;29.67;;;;;;;1.48;100.00;160958.66;5068755;28;20123;-58
2022/03/23 02:08:54;;;;;;;39.60;28.88;;;;;;;1.41;100.00;160939.88;5070400;28;20021;-58
2022/03/23 02:11:20;;;;;;;47.15;28.17;;;;;;;1.34;100.00;160921.09;5068218;28;20044;-59
2022/03/23 02:13:45;;;;;;;42.40;27.67;;;;;;;1.34;100.00;160921.09;5069847;28;20032;-58
2022/03/23 02:16:11;;;;;;;41.28;26.38;;;;;;;1.31;100.00;160913.03;5068511;28;20035;-58
2022/03/23 02:18:36;;;;;;;40.50;27.98;;;;;;;1.26;100.00;160901.00;5069858;28;20021;-58
2022/03/23 02:21:02;;;;;;;42.05;26.90;;;;;;;1.24;100.00;160895.63;5068486;28;20030;-59
2022/03/23 02:23:28;;;;;;;47.70;30.73;;;;;;;1.17;100.00;160876.84;5069767;28;20090;-59
2022/03/23 02:25:59;;;;;;;46.13;30.30;;;;;;;1.14;100.00;160868.78;5069586;28;20059;-59
2022/03/23 02:28:25;;;;;;;40.05;28.95;;;;;;;0.94;100.00;160819.16;5068131;28;20044;-59
2022/03/23 02:30:51;;;;;;;50.25;31.63;;;;;;;1.06;100.00;160848.69;5073413;28;20035;-59
2022/03/23 02:33:19;;;;;;;45.03;27.40;;;;;;;1.03;100.00;160840.59;5071442;28;20051;-59
2022/03/23 02:35:44;;;;;;;43.45;30.10;;;;;;;1.02;100.00;160837.91;5073611;28;20025;-59
2022/03/23 02:38:09;;;;;;;46.40;27.95;;;;;;;0.99;100.00;160829.91;5072011;28;20526;-59
2022/03/23 02:40:35;;;;;;;41.30;28.75;;;;;;;0.97;100.00;160824.53;5073118;28;20402;-59
2022/03/23 02:43:00;;;;;;;50.97;29.38;;;;;;;0.95;100.00;160821.84;5071739;28;20036;-57
2022/03/23 02:45:26;;;;;;;42.25;27.25;;;;;;;0.95;100.00;160821.84;5072935;28;20537;-58
2022/03/23 02:47:51;;;;;;;45.67;31.20;;;;;;;0.97;100.00;160824.53;5071764;28;20043;-58
2022/03/23 02:50:16;;;;;;;52.75;31.98;;;;;;;0.98;100.00;160827.22;5073460;28;20383;-58
2022/03/23 03:01:52;;;;;;;49.83;33.38;;;;;;;1.03;100.00;160840.59;5072110;28;20048;-58
2022/03/23 03:03:59;;;;;;;40.47;28.70;;;;;;;1.03;100.00;160841.97;5071606;28;20071;-58
2022/03/23 03:06:25;;;;;;;47.20;29.58;;;;;;;0.95;100.00;160820.50;5071761;28;20483;-58
2022/03/23 03:08:50;;;;;;;46.25;30.33;;;;;;;0.91;100.00;160809.75;5073025;28;20377;-58
2022/03/23 03:11:18;;;;;;;46.97;30.83;;;;;;;0.82;100.00;160786.97;5071254;28;20032;-58
2022/03/23 03:13:46;;;;;;;43.58;31.40;;;;;;;0.72;100.00;160761.50;5072916;28;20017;-58
2022/03/23 03:16:11;;;;;;;48.88;32.47;;;;;;;0.65;100.00;160741.38;5071263;28;20028;-58
2022/03/23 03:18:36;;;;;;;52.17;33.88;;;;;;;0.59;100.00;160727.97;5072738;28;20050;-58
2022/03/23 03:21:07;;;;;;;45.00;30.40;;;;;;;0.55;100.00;160717.28;5071462;28;20408;-58
2022/03/23 03:23:33;;;;;;;59.45;33.22;;;;;;;0.53;100.00;160710.53;5072958;28;20420;-58
2022/03/23 03:26:01;;;;;;;62.28;31.45;;;;;;;0.53;100.00;160711.91;5072433;28;20052;-58
2022/03/23 03:28:28;;;;;;;46.35;30.35;;;;;;;0.57;100.00;160721.28;5070999;28;20040;-58
2022/03/23 03:30:53;;;;;;;53.72;33.42;;;;;;;0.57;100.00;160721.28;5072974;28;20095;-58
2022/03/23 03:33:18;;;;;;;50.15;32.40;;;;;;;0.60;100.00;160729.31;5070728;28;20048;-58
2022/03/23 03:35:44;;;;;;;52.05;34.17;;;;;;;0.61;100.00;160732.00;5072613;28;20044;-59
2022/03/23 03:38:09;;;;;;;44.60;28.92;;;;;;;0.54;100.00;160714.59;5070936;28;20037;-59
2022/03/23 03:40:35;;;;;;;42.42;27.63;;;;;;;0.49;100.00;160701.16;5071206;28;20040;-59
2022/03/23 03:43:00;;;;;;;52.25;29.08;;;;;;;0.47;100.00;160695.81;5070937;28;20033;-59
2022/03/23 03:45:25;;;;;;;51.92;31.45;;;;;;;0.45;100.00;160690.44;5072415;28;20016;-59
2022/03/23 03:47:51;;;;;;;52.10;31.35;;;;;;;0.44;100.00;160687.75;5070802;28;20431;-59
2022/03/23 03:50:16;;;;;;;61.08;33.40;;;;;;;0.44;100.00;160687.75;5072148;28;20051;-59
2022/03/23 03:52:41;;;;;;;63.38;35.33;;;;;;;0.42;100.00;160682.38;5070883;28;20045;-59
2022/03/23 03:55:07;;;;;;;61.00;37.75;;;;;;;0.42;100.00;160682.38;5071701;28;20024;-60
2022/03/23 03:57:33;;;;;;;59.88;30.63;;;;;;;0.38;100.00;160671.69;5070467;28;20040;-60
2022/03/23 03:59:58;;;;;;;57.33;33.80;;;;;;;0.33;100.00;160658.28;5071904;28;20031;-60
2022/03/23 04:02:24;;;;;;;51.78;30.88;;;;;;;0.33;100.00;160659.63;5070273;28;20044;-59
2022/03/23 04:04:49;;;;;;;51.70;30.95;;;;;;;0.21;100.00;160628.78;5071980;28;20366;-59
2022/03/23 04:07:15;;;;;;;42.20;28.73;;;;;;;0.09;100.00;160596.63;5070509;28;20117;-59
2022/03/23 04:09:40;;;;;;;47.42;33.08;;;;;;;0.22;100.00;160631.47;5071451;28;20028;-59
2022/03/23 04:12:06;;;;;;;51.13;31.30;;;;;;;0.21;100.00;160627.47;5070350;28;20635;-59
2022/03/23 04:14:31;;;;;;;46.60;30.45;;;;;;;0.19;100.00;160623.41;5071702;28;20028;-59
2022/03/23 04:16:57;;;;;;;44.08;30.27;;;;;;;0.18;100.00;160620.78;5070053;28;20040;-59
2022/03/23 04:19:22;;;;;;;48.92;30.23;;;;;;;0.16;100.00;160615.41;5071360;28;20036;-59
2022/03/23 04:21:47;;;;;;;55.90;32.33;;;;;;;0.18;100.00;160619.41;5070191;28;20037;-59
2022/03/23 04:24:13;;;;;;;55.70;34.13;;;;;;;0.26;100.00;160642.16;5070761;28;20035;-59
2022/03/23 04:26:38;;;;;;;47.33;29.70;;;;;;;0.28;100.00;160647.53;5069921;28;20094;-60
2022/03/23 04:29:03;;;;;;;51.00;29.38;;;;;;;0.26;100.00;160640.84;5071550;28;20048;-60
2022/03/23 04:31:29;;;;;;;54.85;33.35;;;;;;;0.21;100.00;160628.78;5069603;28;20491;-59
2022/03/23 04:33:54;;;;;;;59.65;33.67;;;;;;;0.18;100.00;160620.78;5071358;28;20025;-59
2022/03/23 04:36:20;;;;;;;45.35;30.73;;;;;;;0.14;100.00;160611.38;5069760;28;20438;-59
2022/03/23 04:38:45;;;;;;;41.40;29.20;;;;;;;0.05;100.00;160585.88;5071050;28;20078;-59
2022/03/23 04:41:10;;;;;;;45.08;29.65;;;;;;;-0.04;100.00;160564.44;5069023;28;20047;-59
2022/03/23 04:43:38;;;;;;;45.10;27.98;;;;;;;-0.10;100.00;160547.03;5071413;28;20047;-59
2022/03/23 04:46:03;;;;;;;43.58;29.55;;;;;;;-0.15;100.00;160534.97;5069894;28;20495;-59
2022/03/23 04:48:29;;;;;;;57.78;30.60;;;;;;;-0.15;100.00;160533.66;5070899;28;20034;-59
2022/03/23 04:50:54;;;;;;;62.58;35.75;;;;;;;-0.11;100.00;160544.38;5071015;28;20055;-59
2022/03/23 04:53:21;;;;;;;46.60;31.45;;;;;;;-0.11;100.00;160545.69;5069282;28;20613;-59
2022/03/23 04:55:46;;;;;;;55.10;33.90;;;;;;;-0.16;100.00;160532.28;5070091;28;20070;-60
2022/03/23 04:58:12;;;;;;;41.08;31.70;;;;;;;-0.09;100.00;160551.06;5069334;28;20620;-59
2022/03/23 05:00:37;;;;;;;44.97;29.20;;;;;;;-0.12;100.00;160543.03;5070891;28;20020;-59
2022/03/23 05:03:04;;;;;;;62.17;33.03;;;;;;;-0.12;100.00;160543.03;5069099;28;20037;-59
2022/03/23 05:05:30;;;;;;;49.08;30.52;;;;;;;-0.15;100.00;160533.66;5071110;28;20020;-59
2022/03/23 05:07:55;;;;;;;56.78;32.80;;;;;;;-0.15;100.00;160534.97;5069383;28;20515;-59
2022/03/23 05:10:21;;;;;;;73.45;35.80;;;;;;;-0.13;100.00;160540.34;5069489;28;20054;-58
2022/03/23 05:12:46;;;;;;;54.50;31.73;;;;;;;-0.12;100.00;160543.03;5061016;28;20029;-56
2022/03/23 05:15:14;;;;;;;55.80;33.88;;;;;;;-0.20;100.00;160521.59;5045184;28;20048;-56
2022/03/23 05:17:40;;;;;;;50.10;31.50;;;;;;;-0.19;100.00;160524.28;5062420;28;20496;-55
2022/03/23 05:20:07;;;;;;;59.58;35.47;;;;;;;-0.19;100.00;160524.28;5070371;28;20051;-56
2022/03/23 05:22:33;;;;;;;47.65;30.17;;;;;;;-0.26;100.00;160506.84;5068474;28;20522;-55
2022/03/23 05:24:58;;;;;;;65.13;33.78;;;;;;;-0.34;100.00;160486.78;5070425;28;20021;-55
2022/03/23 05:27:24;;;;;;;67.45;33.65;;;;;;;-0.43;100.00;160462.66;5067613;28;20032;-55
2022/03/23 05:29:50;;;;;;;57.63;33.10;;;;;;;-0.48;100.00;160449.22;5070658;28;20095;-56
2022/03/23 05:32:18;;;;;;;57.70;29.95;;;;;;;-0.48;100.00;160449.22;5067724;28;20037;-55
2022/03/23 05:34:45;;;;;;;55.78;27.90;;;;;;;-0.53;100.00;160435.84;5070592;28;20020;-55
2022/03/23 05:37:11;;;;;;;64.00;33.28;;;;;;;-0.50;100.00;160443.91;5068748;28;20044;-55
2022/03/23 05:39:37;;;;;;;59.75;36.00;;;;;;;-0.53;100.00;160435.84;5069185;28;20115;-55
2022/03/23 05:42:03;;;;;;;67.80;37.55;;;;;;;-0.51;100.00;160442.53;5069185;28;20056;-55
2022/03/23 05:44:29;;;;;;;67.55;38.55;;;;;;;-0.49;100.00;160446.56;5069354;28;20086;-55
2022/03/23 05:46:54;;;;;;;73.20;41.78;;;;;;;-0.45;100.00;160455.97;5068303;28;20040;-56
2022/03/23 05:49:20;;;;;;;58.72;34.65;;;;;;;-0.44;100.00;160459.97;5070157;28;20029;-56
2022/03/23 05:51:45;;;;;;;61.85;36.53;;;;;;;-0.42;100.00;160465.34;5067633;28;20046;-56
2022/03/23 05:54:10;;;;;;;60.75;34.42;;;;;;;-0.40;100.00;160470.66;5069935;28;20029;-55
2022/03/23 05:56:36;;;;;;;55.88;33.95;;;;;;;-0.36;100.00;160480.03;5069074;28;20525;-55
2022/03/23 05:59:01;;;;;;;71.28;38.47;;;;;;;-0.32;100.00;160492.09;5070595;28;20020;-56
2022/03/23 06:01:26;;;;;;;72.32;40.78;;;;;;;-0.26;100.00;160505.53;5066961;28;20029;-55
2022/03/23 06:03:52;;;;;;;60.47;36.15;;;;;;;-0.19;100.00;160524.28;5070942;28;20048;-55
2022/03/23 06:06:17;;;;;;;63.22;38.35;;;;;;;-0.10;100.00;160548.38;5072714;28;20017;-56
2022/03/23 06:08:43;;;;;;;59.17;39.20;;;;;;;-0.14;100.00;160537.66;5073934;28;20024;-56
2022/03/23 06:11:08;;;;;;;54.88;34.47;;;;;;;0.10;100.00;160599.31;5072690;28;20032;-56
2022/03/23 06:13:33;;;;;;;65.15;42.50;;;;;;;0.20;100.00;160626.09;5074226;28;20387;-56
2022/03/23 06:15:59;;;;;;;59.20;34.67;;;;;;;0.32;100.00;160656.94;5073784;28;20078;-56
2022/03/23 06:18:24;;;;;;;54.83;34.55;;;;;;;0.40;100.00;160677.06;5072625;28;20048;-56
2022/03/23 06:20:49;;;;;;;50.15;33.15;;;;;;;0.40;100.00;160677.06;5073960;28;20036;-56
2022/03/23 06:23:15;;;;;;;51.50;32.75;;;;;;;0.44;100.00;160687.75;5072229;28;20415;-56
2022/03/23 06:25:40;;;;;;;44.13;31.88;;;;;;;0.47;100.00;160695.81;5074040;28;20016;-56
2022/03/23 06:28:06;;;;;;;47.13;29.92;;;;;;;0.50;100.00;160703.84;5072359;28;20044;-56
2022/03/23 06:30:31;;;;;;;56.35;34.42;;;;;;;0.56;100.00;160719.91;5073877;28;20016;-56
2022/03/23 06:32:56;;;;;;;43.35;29.17;;;;;;;0.60;100.00;160729.31;5072619;28;20407;-56
2022/03/23 06:35:22;;;;;;;50.83;32.35;;;;;;;0.68;100.00;160749.44;5073499;28;20028;-56
2022/03/23 06:37:47;;;;;;;48.40;31.77;;;;;;;0.80;100.00;160781.59;5071988;28;20037;-56
2022/03/23 06:40:13;;;;;;;50.33;33.47;;;;;;;0.93;100.00;160816.47;5073502;28;20360;-56
2022/03/23 06:42:38;;;;;;;61.70;33.70;;;;;;;1.10;100.00;160860.75;5072180;28;20039;-56
2022/03/23 06:45:04;;;;;;;40.08;29.73;;;;;;;1.26;100.00;160902.31;5073317;28;20078;-56
2022/03/23 06:47:30;;;;;;;47.20;33.67;;;;;;;1.33;100.00;160918.41;5072322;28;20119;-56
2022/03/23 06:49:56;;;;;;;42.08;31.02;;;;;;;1.65;100.00;161001.59;5073540;28;20020;-56
2022/03/23 06:52:21;;;;;;;49.35;32.42;;;;;;;1.83;100.00;161049.88;5071667;28;20487;-56
2022/03/23 06:54:46;;;;;;;46.55;35.33;;;;;;;2.06;100.00;161110.28;5073220;28;20021;-56
2022/03/23 06:57:12;;;;;;;55.13;35.72;;;;;;;2.25;100.00;161158.59;5071651;28;20044;-56
2022/03/23 06:59:37;;;;;;;71.53;35.72;;;;;;;2.50;100.00;161224.34;5073044;28;20024;-56
2022/03/23 07:02:03;;;;;;;52.80;35.67;;;;;;;2.73;100.00;161283.44;5071810;28;20037;-56
2022/03/23 07:04:28;;;;;;;59.78;37.50;;;;;;;2.93;100.00;161334.50;5072787;28;20044;-56
2022/03/23 07:06:54;;;;;;;58.47;35.30;;;;;;;3.15;100.00;161393.59;5071485;28;20065;-56
2022/03/23 07:09:31;;;;;;;56.50;36.25;;;;;;;3.39;100.00;161455.34;5072651;28;20434;-56
2022/03/23 07:12:00;;;;;;;65.35;41.47;;;;;;;3.68;100.00;161530.59;5071524;28;20134;-56
2022/03/23 07:14:27;;;;;;;70.78;42.15;;;;;;;3.99;100.00;161611.19;5072767;28;20793;-56
2022/03/23 07:16:53;;;;;;;54.63;41.47;;;;;;;4.29;100.00;161689.16;5070078;28;20513;-57
2022/03/23 07:19:18;;;;;;;51.53;40.92;;;;;;;4.45;100.00;161732.19;5072919;28;20039;-56
2022/03/23 07:21:43;;;;;;;46.78;36.17;;;;;;;4.87;100.00;161839.78;5071176;28;20029;-56
2022/03/23 07:24:10;;;;;;;58.67;41.90;;;;;;;5.10;100.00;161898.94;5072786;28;20024;-56
2022/03/23 07:26:35;;;;;;;60.88;38.45;;;;;;;5.39;100.00;161976.97;5071537;28;20038;-56
2022/03/23 07:29:01;;;;;;;52.15;34.20;;;;;;;5.66;100.00;162046.91;5072598;28;20021;-57
2022/03/23 07:31:26;;;;;;;54.25;35.67;;;;;;;5.99;100.00;162133.09;5071079;28;20033;-56
2022/03/23 07:33:52;;;;;;;49.65;37.40;;;;;;;6.28;100.00;162208.44;5072963;28;20530;-56
2022/03/23 07:36:17;;;;;;;64.95;35.63;;;;;;;6.57;100.00;162283.81;5071246;28;20368;-57
2022/03/23 07:38:43;;;;;;;48.85;34.88;;;;;;;6.93;100.00;162378.06;5072553;28;20023;-57
2022/03/23 07:41:08;;;;;;;44.00;32.08;;;;;;;7.22;100.00;162453.47;5070745;28;20095;-56
2022/03/23 07:43:33;;;;;;;44.45;34.10;;;;;;;7.56;100.00;162541.03;5072774;28;20070;-57
2022/03/23 07:45:59;;;;;;;47.25;31.10;;;;;;;7.86;100.00;162620.50;5072452;28;20066;-56
2022/03/23 07:48:24;;;;;;;45.00;29.25;;;;;;;8.29;100.00;162731.03;5071068;28;20045;-56
2022/03/23 07:50:53;;;;;;;43.90;29.17;;;;;;;9.21;100.00;162973.75;5072633;28;20027;-56
2022/03/23 07:53:19;;;;;;;40.40;28.80;;;;;;;10.53;100.00;163317.84;5070171;28;20474;-54
2022/03/23 07:55:44;;;;;;;39.17;27.17;;;;;;;12.03;100.00;163710.84;5072261;28;20360;-54
2022/03/23 07:58:10;;;;;;;50.83;27.75;;;;;;;12.97;100.00;163956.81;5070373;28;20067;-54
2022/03/23 08:00:36;;;;;;;39.15;28.55;;;;;;;13.95;100.00;164213.78;5071637;28;20388;-54
2022/03/23 08:03:01;;;;;;;33.50;26.33;;;;;;;15.74;100.00;164682.06;5070494;28;20436;-54
2022/03/23 08:05:28;;;;;;;48.38;26.77;;;;;;;17.12;94.22;165045.16;5072127;28;20075;-55
2022/03/23 08:07:54;;;;;;;34.05;26.17;;;;;;;16.12;86.75;164780.94;5070335;28;20197;-55
2022/03/23 08:10:19;;;;;;;38.95;26.23;;;;;;;15.58;87.56;164638.75;5071713;28;20021;-55
2022/03/23 08:12:44;;;;;;;39.72;25.70;;;;;;;15.32;90.69;164571.03;5070482;28;20075;-55
2022/03/23 08:15:10;;;;;;;36.58;24.50;;;;;;;15.82;87.06;164703.69;5069990;28;20021;-55
2022/03/23 08:17:38;;;;;;;39.60;26.67;;;;;;;15.83;83.22;164706.47;5069231;28;20047;-55
2022/03/23 08:22:51;;;;;;;40.10;26.95;;;;;;;15.38;89.63;164587.25;5070136;28;19923;-55
2022/03/23 08:25:17;;;;;;;38.50;25.77;;;;;;;14.95;81.92;164473.56;5071750;28;20021;-55
2022/03/23 08:27:42;;;;;;;32.28;26.27;;;;;;;15.65;85.25;164657.69;5069820;28;20041;-55
2022/03/23 08:30:08;;;;;;;36.72;24.42;;;;;;;15.61;83.92;164648.22;5070966;28;20032;-55
2022/03/23 08:32:33;;;;;;;32.38;24.65;;;;;;;15.97;81.36;164741.72;5070485;28;20131;-54
2022/03/23 08:34:58;;;;;;;34.65;26.17;;;;;;;16.25;81.51;164814.81;5071546;28;20411;-55
2022/03/23 08:37:24;;;;;;;35.90;23.60;;;;;;;16.48;73.64;164877.13;5069655;28;20036;-55
2022/03/23 08:39:49;;;;;;;40.03;23.50;;;;;;;16.29;72.85;164825.63;5071532;28;20028;-55
2022/03/23 08:42:15;;;;;;;29.70;23.52;;;;;;;16.00;74.75;164751.19;5069427;28;20032;-55
2022/03/23 08:44:41;;;;;;;36.17;25.00;;;;;;;16.29;73.34;164825.63;5071130;28;20492;-55
2022/03/23 08:47:08;;;;;;;32.28;22.83;;;;;;;17.14;70.81;165049.22;5068354;28;20048;-55
2022/03/23 08:49:33;;;;;;;30.25;23.73;;;;;;;16.85;69.44;164971.97;5071335;28;20020;-55
2022/03/23 08:51:58;;;;;;;32.70;24.10;;;;;;;16.69;65.86;164931.31;5069630;28;20102;-55
2022/03/23 08:54:24;;;;;;;31.77;24.88;;;;;;;16.52;67.20;164886.63;5071161;28;20035;-55
2022/03/23 08:56:49;;;;;;;30.33;24.02;;;;;;;16.65;66.73;164920.44;5069835;28;20032;-55
2022/03/23 08:59:15;;;;;;;33.25;24.73;;;;;;;16.95;72.49;164999.06;5070532;28;20027;-54
2022/03/23 09:01:40;;;;;;;29.92;23.23;;;;;;;17.07;65.10;165031.63;5069581;28;20036;-55
2022/03/23 09:04:08;;;;;;;32.35;26.33;;;;;;;17.54;65.68;165153.56;5070728;28;20055;-54
2022/03/23 09:06:33;;;;;;;31.43;25.27;;;;;;;17.95;63.99;165262.06;5069346;28;20115;-54
2022/03/23 09:08:58;;;;;;;27.92;23.52;;;;;;;18.18;66.56;165321.72;5070995;28;20159;-54
2022/03/23 09:11:24;;;;;;;35.42;26.25;;;;;;;17.94;60.71;165257.97;5069022;28;20399;-54
2022/03/23 09:13:49;;;;;;;31.38;24.15;;;;;;;18.38;62.31;165375.94;5070510;28;20126;-55
2022/03/23 09:16:15;;;;;;;31.52;24.38;;;;;;;18.80;60.13;165485.81;5069003;28;20365;-55
2022/03/23 09:18:41;;;;;;;32.03;24.35;;;;;;;18.30;58.74;165354.25;5070709;28;20073;-55
2022/03/23 09:21:07;;;;;;;32.03;25.52;;;;;;;17.96;68.66;165264.78;5068664;28;20032;-55
2022/03/23 09:23:32;;;;;;;28.55;23.48;;;;;;;18.44;57.67;165390.88;5070851;28;20023;-55
2022/03/23 09:25:58;;;;;;;29.40;24.95;;;;;;;19.31;57.35;165620.16;5069255;28;20494;-55
2022/03/23 09:28:23;;;;;;;33.53;25.73;;;;;;;19.66;55.65;165712.41;5069839;28;20215;-55
2022/03/23 09:30:48;;;;;;;32.72;26.63;;;;;;;20.16;56.68;165842.72;5070733;28;20020;-55
2022/03/23 09:33:15;;;;;;;31.90;24.10;;;;;;;20.27;53.22;165871.22;5068890;28;20048;-55
2022/03/23 09:35:40;;;;;;;31.65;26.48;;;;;;;20.37;52.73;165897.00;5070124;28;20025;-55
2022/03/23 09:38:06;;;;;;;34.05;24.70;;;;;;;20.77;51.05;166002.97;5068554;28;20572;-55
2022/03/23 09:40:32;;;;;;;30.48;25.42;;;;;;;20.51;50.59;165935.06;5068598;28;20032;-54
2022/03/23 09:43:04;;;;;;;29.70;22.95;;;;;;;20.17;55.43;165845.44;5068835;28;20044;-55
2022/03/23 09:45:48;;;;;;;31.27;23.38;;;;;;;20.25;50.38;165867.16;5070555;28;20032;-55
2022/03/23 09:48:21;;;;;;;31.90;25.42;;;;;;;20.50;52.34;165932.34;5068755;28;20062;-54
2022/03/23 09:50:53;;;;;;;27.17;21.17;;;;;;;20.95;52.71;166049.16;5070053;28;20245;-55
2022/03/23 09:53:21;;;;;;;34.97;24.20;;;;;;;20.67;47.64;165977.13;5068768;28;20044;-55
2022/03/23 09:55:49;;;;;;;27.60;24.73;;;;;;;20.24;50.04;165864.44;5067233;28;20067;-54
2022/03/23 09:58:14;;;;;;;;;;;;;;;20.75;47.10;165997.53;5064643;28;20095;-55
2022/03/23 10:00:42;;;;;;;27.53;21.03;;;;;;;21.16;48.75;166106.16;5054175;28;19913;-55
2022/03/23 10:03:14;;;;;;;25.08;22.33;;;;;;;20.76;44.08;166000.25;5058772;28;20044;-55
2022/03/23 10:06:03;;;;;;;25.70;20.52;;;;;;;21.95;44.25;166312.66;5061779;28;20470;-55
2022/03/23 10:08:50;;;;;;;24.38;20.40;;;;;;;21.29;42.82;166138.75;5051427;28;20049;-55
2022/03/23 10:11:18;;;;;;;25.30;22.75;;;;;;;19.84;43.92;165758.63;5064162;28;20123;-55
2022/03/23 10:14:02;;;;;;;;;;;;;;;19.40;44.17;165641.88;5070287;28;20063;-55
2022/03/23 10:17:07;;;;;;;24.45;21.83;;;;;;;19.89;45.21;165772.16;5066797;28;20295;-55
2022/03/23 10:19:32;;;;;;;25.13;19.27;;;;;;;19.52;41.11;165673.03;5069712;28;20178;-55
2022/03/23 10:22:08;;;;;;;24.88;19.45;;;;;;;20.08;43.54;165821.00;5068387;28;20519;-55
2022/03/23 10:24:34;;;;;;;25.17;19.25;;;;;;;21.15;42.51;166103.44;5070120;28;20135;-55
2022/03/23 10:27:06;;;;;;;24.70;18.80;;;;;;;21.12;41.16;166093.94;5068296;28;20044;-55
2022/03/23 10:29:32;;;;;;;21.23;19.02;;;;;;;20.22;38.53;165859.00;5069657;28;20024;-55
2022/03/23 10:32:06;;;;;;;18.75;16.42;;;;;;;20.45;40.70;165918.72;5068524;28;20041;-55
2022/03/23 10:34:39;;;;;;;17.38;15.65;;;;;;;20.70;38.70;165983.91;5069595;28;20047;-55
2022/03/23 10:37:05;;;;;;;19.77;15.70;;;;;;;20.95;37.31;166049.16;5068055;28;20043;-55
2022/03/23 10:39:31;;;;;;;24.73;15.82;;;;;;;21.05;36.73;166076.28;5068012;28;20104;-55
2022/03/23 10:41:58;;;;;;;20.17;16.83;;;;;;;21.28;36.63;166137.41;5064094;28;20041;-55
2022/03/23 10:44:24;;;;;;;18.02;15.82;;;;;;;21.44;35.02;166179.50;5069642;28;20024;-55
2022/03/23 10:46:49;;;;;;;18.83;16.92;;;;;;;22.13;37.74;166360.19;5068548;28;20348;-55
2022/03/23 10:49:15;;;;;;;20.60;16.20;;;;;;;20.66;35.36;165973.06;5069117;28;20099;-55
2022/03/23 10:51:42;;;;;;;19.13;16.95;;;;;;;20.99;38.17;166059.97;5071438;28;20032;-55
2022/03/23 10:54:14;;;;;;;20.48;17.08;;;;;;;21.84;36.27;166285.50;5073031;28;20082;-55
2022/03/23 10:56:40;;;;;;;25.92;18.40;;;;;;;21.95;35.57;166312.66;5069921;28;20044;-55
2022/03/23 10:59:26;;;;;;;18.42;16.55;;;;;;;21.14;34.56;166100.72;5064272;28;20071;-55
2022/03/23 11:01:57;;;;;;;19.73;17.70;;;;;;;21.46;36.33;166184.94;5060381;28;20076;-58
2022/03/23 11:04:29;;;;;;;20.63;18.23;;;;;;;21.87;33.94;166293.63;5052999;28;20098;-55
2022/03/23 11:07:01;;;;;;;24.13;17.75;;;;;;;22.07;35.63;166345.28;5071701;28;20095;-55
2022/03/23 11:18:12;;;;;;;19.75;17.75;;;;;;;20.46;36.71;165921.44;5051504;28;20055;-55
2022/03/23 11:20:56;;;;;;;23.80;19.80;;;;;;;20.46;38.43;165921.44;5057212;28;20044;-55
2022/03/23 11:23:23;;;;;;;24.30;19.90;;;;;;;20.06;35.67;165815.59;5070556;28;20047;-55
2022/03/23 11:26:00;;;;;;;21.92;18.40;;;;;;;19.06;35.80;165552.31;5072454;28;20070;-55
2022/03/23 11:28:28;;;;;;;22.65;18.98;;;;;;;19.00;37.05;165537.38;5069788;28;20086;-56